createdAt,value
2023-02-14T00:01:16.196Z,64.85
2023-02-14T00:03:43.528Z,62.30
2023-02-14T00:06:13.926Z,67.07
2023-02-14T00:08:44.432Z,63.08
2023-02-14T00:11:13.032Z,63.13
2023-02-14T00:14:00.269Z,62.25
2023-02-14T00:16:28.017Z,62.55
2023-02-14T00:19:04.029Z,64.07
2023-02-14T00:21:38.740Z,64.70
2023-02-14T00:24:26.548Z,65.47
2023-02-14T00:26:53.974Z,65.40
2023-02-14T00:29:32.469Z,60.20
2023-02-14T00:32:02.319Z,70.05
2023-02-14T00:34:29.888Z,71.63
2023-02-14T00:36:57.117Z,77.63
2023-02-14T00:39:24.659Z,65.60
2023-02-14T00:41:51.833Z,61.38
2023-02-14T00:44:20.060Z,72.93
2023-02-14T00:46:47.272Z,68.05
2023-02-14T00:49:14.612Z,68.95
2023-02-14T00:51:41.869Z,61.05
2023-02-14T00:54:09.128Z,69.55
2023-02-14T00:56:36.401Z,66.05
2023-02-14T00:59:03.725Z,68.38
2023-02-14T01:01:31.095Z,81.05
2023-02-14T01:03:59.018Z,73.97
2023-02-14T01:06:26.358Z,68.88
2023-02-14T01:08:53.644Z,68.55
2023-02-14T01:11:22.739Z,73.70
2023-02-14T01:13:51.610Z,70.45
2023-02-14T01:16:21.246Z,70.40
2023-02-14T01:18:49.484Z,70.40
2023-02-14T01:21:28.985Z,74.00
2023-02-14T01:23:59.317Z,73.43
2023-02-14T01:26:27.759Z,74.30
2023-02-14T01:28:55.985Z,67.43
2023-02-14T01:31:26.993Z,73.00
2023-02-14T01:33:57.412Z,69.68
2023-02-14T01:36:30.292Z,71.18
2023-02-14T01:39:00.906Z,75.07
2023-02-14T01:41:30.963Z,82.28
2023-02-14T01:44:01.323Z,67.93
2023-02-14T01:46:31.407Z,76.80
2023-02-14T01:49:18.399Z,77.63
2023-02-14T01:52:00.316Z,73.97
2023-02-14T01:54:31.204Z,86.25
2023-02-14T01:57:02.682Z,74.15
2023-02-14T01:59:34.749Z,81.65
2023-02-14T02:02:02.429Z,77.60
2023-02-14T02:04:33.828Z,71.78
2023-02-14T02:07:07.545Z,73.43
2023-02-14T02:09:37.046Z,76.75
2023-02-14T02:12:05.067Z,75.07
2023-02-14T02:14:33.187Z,69.82
2023-02-14T02:17:12.673Z,75.07
2023-02-14T02:20:01.680Z,67.68
2023-02-14T02:22:51.335Z,69.93
2023-02-14T02:25:40.347Z,68.05
2023-02-14T02:28:10.482Z,65.15
2023-02-14T02:30:41.011Z,68.10
2023-02-14T02:33:24.036Z,69.55
2023-02-14T02:36:00.832Z,65.88
2023-02-14T02:38:45.856Z,61.42
2023-02-14T02:41:25.749Z,64.13
2023-02-14T02:44:02.300Z,64.97
2023-02-14T02:46:47.529Z,60.20
2023-02-14T02:49:40.309Z,63.10
2023-02-14T02:52:50.505Z,59.47
2023-02-14T02:55:28.135Z,59.38
2023-02-14T02:57:56.963Z,57.47
2023-02-14T03:00:25.077Z,60.08
2023-02-14T03:03:15.160Z,61.33
2023-02-14T03:05:43.782Z,55.40
2023-02-14T03:08:10.926Z,55.15
2023-02-14T03:10:39.946Z,55.55
2023-02-14T03:13:35.168Z,56.47
2023-02-14T03:16:30.573Z,59.10
2023-02-14T03:19:34.537Z,60.33
2023-02-14T03:22:14.643Z,51.85
2023-02-14T03:24:42.740Z,55.10
2023-02-14T03:27:27.850Z,50.70
2023-02-14T03:30:06.233Z,53.63
2023-02-14T03:32:51.816Z,51.00
2023-02-14T03:35:41.220Z,49.92
2023-02-14T03:38:28.233Z,50.90
2023-02-14T03:41:05.673Z,52.97
2023-02-14T03:43:45.912Z,52.30
2023-02-14T03:46:25.458Z,47.58
2023-02-14T03:48:55.999Z,49.13
2023-02-14T03:51:24.788Z,45.33
2023-02-14T03:53:56.750Z,42.50
2023-02-14T03:56:30.172Z,49.75
2023-02-14T03:59:01.596Z,45.00
2023-02-14T04:01:34.985Z,40.75
2023-02-14T04:04:04.590Z,46.03
2023-02-14T04:06:31.859Z,44.80
2023-02-14T04:08:59.157Z,40.70
2023-02-14T04:11:26.618Z,43.75
2023-02-14T04:13:53.876Z,46.47
2023-02-14T04:16:21.068Z,40.83
2023-02-14T04:19:06.713Z,40.03
2023-02-14T04:21:33.953Z,42.17
2023-02-14T04:24:01.118Z,36.92
2023-02-14T04:26:28.345Z,36.10
2023-02-14T04:28:55.642Z,35.35
2023-02-14T04:31:22.970Z,39.17
2023-02-14T04:33:51.368Z,43.55
2023-02-14T04:36:18.519Z,39.83
2023-02-14T04:38:45.737Z,40.83
2023-02-14T04:41:12.903Z,36.55
2023-02-14T04:43:40.414Z,39.47
2023-02-14T04:46:07.595Z,36.03
2023-02-14T04:48:34.817Z,39.38
2023-02-14T04:51:02.270Z,33.47
2023-02-14T04:53:29.632Z,39.92
2023-02-14T04:55:56.927Z,37.65
2023-02-14T04:58:24.111Z,36.38
2023-02-14T05:00:51.361Z,37.65
2023-02-14T05:03:18.770Z,35.55
2023-02-14T05:05:46.735Z,33.00
2023-02-14T05:08:14.991Z,35.03
2023-02-14T05:10:42.256Z,34.95
2023-02-14T05:13:09.623Z,38.13
2023-02-14T05:15:38.658Z,34.42
2023-02-14T05:18:06.199Z,31.67
2023-02-14T05:20:33.432Z,35.78
2023-02-14T05:23:03.383Z,35.20
2023-02-14T05:25:31.433Z,38.75
2023-02-14T05:27:58.861Z,33.63
2023-02-14T05:30:28.180Z,37.10
2023-02-14T05:32:55.407Z,39.35
2023-02-14T05:35:22.879Z,38.85
2023-02-14T05:37:50.760Z,39.35
2023-02-14T05:40:18.151Z,45.05
2023-02-14T05:42:45.351Z,40.20
2023-02-14T05:45:13.157Z,37.25
2023-02-14T05:47:40.469Z,42.10
2023-02-14T05:50:08.356Z,45.53
2023-02-14T05:52:35.708Z,38.60
2023-02-14T05:55:03.425Z,40.67
2023-02-14T05:57:31.293Z,43.58
2023-02-14T05:59:58.516Z,42.10
2023-02-14T06:02:25.957Z,43.33
2023-02-14T06:04:53.351Z,40.17
2023-02-14T06:07:20.599Z,40.85
2023-02-14T06:09:48.148Z,39.80
2023-02-14T06:12:15.829Z,39.10
2023-02-14T06:14:43.201Z,34.85
2023-02-14T06:17:10.871Z,36.10
2023-02-14T06:19:38.176Z,36.95
2023-02-14T06:22:05.701Z,36.17
2023-02-14T06:24:32.893Z,35.45
2023-02-14T06:27:00.571Z,34.28
2023-02-14T06:29:27.989Z,37.53
2023-02-14T06:31:55.358Z,35.05
2023-02-14T06:34:22.558Z,40.50
2023-02-14T06:36:49.889Z,31.45
2023-02-14T06:39:17.136Z,29.35
2023-02-14T06:41:44.350Z,33.17
2023-02-14T06:44:11.550Z,35.72
2023-02-14T06:46:39.308Z,30.15
2023-02-14T06:49:06.611Z,32.20
2023-02-14T06:51:33.871Z,29.80
2023-02-14T06:54:01.106Z,34.92
2023-02-14T06:56:28.789Z,29.45
2023-02-14T06:58:56.053Z,29.17
2023-02-14T07:01:23.341Z,32.63
2023-02-14T07:03:50.783Z,30.55
2023-02-14T07:06:18.015Z,30.90
2023-02-14T07:08:45.676Z,31.42
2023-02-14T07:11:12.893Z,35.63
2023-02-14T07:13:40.049Z,30.73
2023-02-14T07:16:07.295Z,29.13
2023-02-14T07:18:34.484Z,29.40
2023-02-14T07:21:02.068Z,29.95
2023-02-14T07:23:29.597Z,34.70
2023-02-14T07:25:56.934Z,25.00
2023-02-14T07:28:24.239Z,33.70
2023-02-14T07:30:51.496Z,27.33
2023-02-14T07:33:21.341Z,28.25
2023-02-14T07:35:48.697Z,29.98
2023-02-14T07:38:15.919Z,31.77
2023-02-14T07:40:43.124Z,30.23
2023-02-14T07:43:10.515Z,30.30
2023-02-14T07:45:37.819Z,32.38
2023-02-14T07:48:05.074Z,35.53
2023-02-14T07:50:32.286Z,31.67
2023-02-14T07:52:59.549Z,31.27
2023-02-14T07:55:26.727Z,29.67
2023-02-14T07:57:54.177Z,29.67
2023-02-14T08:00:21.808Z,31.45
2023-02-14T08:02:49.558Z,28.45
2023-02-14T08:05:17.487Z,29.33
2023-02-14T08:07:46.408Z,30.05
2023-02-14T08:10:14.218Z,28.27
2023-02-14T08:12:59.403Z,30.33
2023-02-14T08:15:54.783Z,26.77
2023-02-14T08:18:27.261Z,28.38
2023-02-14T08:20:54.558Z,29.25
2023-02-14T08:23:22.261Z,30.63
2023-02-14T08:25:50.995Z,28.23
2023-02-14T08:28:20.871Z,29.55
2023-02-14T08:30:48.191Z,30.08
2023-02-14T08:33:15.487Z,28.58
2023-02-14T08:35:42.933Z,25.75
2023-02-14T08:38:10.682Z,25.40
2023-02-14T08:40:38.234Z,32.33
2023-02-14T08:43:07.038Z,32.28
2023-02-14T08:45:34.413Z,25.38
2023-02-14T08:48:03.294Z,32.97
2023-02-14T08:50:30.982Z,31.13
2023-02-14T08:52:58.426Z,30.15
2023-02-14T08:55:26.160Z,34.95
2023-02-14T08:57:58.131Z,32.97
2023-02-14T09:00:25.604Z,28.08
2023-02-14T09:02:53.803Z,29.27
2023-02-14T09:05:23.402Z,33.78
2023-02-14T09:07:50.934Z,34.92
2023-02-14T09:10:18.811Z,30.33
2023-02-14T09:12:46.073Z,31.48
2023-02-14T09:15:13.966Z,30.50
2023-02-14T09:17:41.391Z,33.47
2023-02-14T09:20:10.892Z,31.90
2023-02-14T09:22:38.328Z,29.17
2023-02-14T09:25:06.025Z,26.35
2023-02-14T09:27:33.514Z,28.33
2023-02-14T09:30:00.871Z,30.27
2023-02-14T09:32:29.367Z,28.38
2023-02-14T09:34:56.649Z,31.15
2023-02-14T09:37:24.241Z,28.63
2023-02-14T09:39:51.521Z,26.65
2023-02-14T09:42:41.647Z,30.55
2023-02-14T09:45:12.812Z,30.23
2023-02-14T09:47:46.515Z,26.70
2023-02-14T09:50:20.304Z,31.58
2023-02-14T09:52:50.825Z,18.65
2023-02-14T09:55:18.965Z,27.73
2023-02-14T09:57:59.821Z,29.77
2023-02-14T10:00:38.600Z,30.20
2023-02-14T10:03:18.850Z,29.80
2023-02-14T10:05:59.451Z,29.95
2023-02-14T10:09:00.851Z,31.77
2023-02-14T10:11:28.752Z,28.60
2023-02-14T10:14:04.119Z,28.65
2023-02-14T10:16:43.126Z,26.08
2023-02-14T10:19:36.901Z,27.50
2023-02-14T10:22:21.441Z,30.63
2023-02-14T10:24:53.130Z,25.70
2023-02-14T10:27:43.957Z,31.50
2023-02-14T10:30:17.791Z,32.13
2023-02-14T10:32:45.071Z,30.17
2023-02-14T10:35:43.144Z,29.92
2023-02-14T10:38:54.214Z,26.90
2023-02-14T10:41:49.362Z,29.23
2023-02-14T10:47:09.181Z,33.40
2023-02-14T10:49:57.692Z,31.67
2023-02-14T10:52:34.511Z,30.58
2023-02-14T10:55:30.071Z,31.73
2023-02-14T10:58:01.692Z,31.75
2023-02-14T11:00:34.498Z,31.20
2023-02-14T11:03:07.320Z,31.77
2023-02-14T11:05:46.541Z,38.38
2023-02-14T11:08:18.273Z,37.30
2023-02-14T11:10:46.218Z,34.92
2023-02-14T11:13:35.943Z,33.30
2023-02-14T11:16:10.046Z,32.33
2023-02-14T11:18:40.041Z,28.98
2023-02-14T11:21:14.690Z,37.83
2023-02-14T11:23:50.177Z,31.92
2023-02-14T11:26:35.158Z,34.95
2023-02-14T11:29:12.246Z,29.52
2023-02-14T11:31:41.033Z,32.50
2023-02-14T11:34:30.514Z,32.65
2023-02-14T11:36:58.059Z,29.73
2023-02-14T11:39:30.149Z,31.90
2023-02-14T11:42:01.170Z,31.67
2023-02-14T11:44:30.606Z,28.73
2023-02-14T11:47:15.837Z,31.52
2023-02-14T11:53:08.421Z,28.02
2023-02-14T11:55:36.958Z,36.70
2023-02-14T11:58:06.999Z,31.15
2023-02-14T12:00:35.234Z,35.47
2023-02-14T12:03:06.736Z,35.35
2023-02-14T12:05:36.772Z,42.15
2023-02-14T12:08:08.113Z,30.25
2023-02-14T12:10:37.031Z,31.65
2023-02-14T12:13:10.095Z,34.20
2023-02-14T12:15:42.882Z,35.45
2023-02-14T12:18:45.116Z,38.75
2023-02-14T12:21:30.647Z,32.97
2023-02-14T12:24:27.996Z,33.42
2023-02-14T12:27:10.281Z,33.70
2023-02-14T12:29:52.394Z,30.83
2023-02-14T12:32:30.268Z,28.08
2023-02-14T12:35:18.868Z,30.98
2023-02-14T12:38:02.741Z,32.45
2023-02-14T12:40:53.190Z,36.25
2023-02-14T12:43:50.982Z,31.00
2023-02-14T12:46:36.986Z,36.33
2023-02-14T12:49:26.890Z,37.28
2023-02-14T12:52:15.223Z,37.92
2023-02-14T12:54:52.862Z,39.97
2023-02-14T12:57:49.728Z,33.85
2023-02-14T13:00:35.307Z,35.92
2023-02-14T13:03:10.105Z,31.13
2023-02-14T13:05:56.828Z,37.38
2023-02-14T13:08:38.924Z,38.75
2023-02-14T13:11:43.994Z,37.00
2023-02-14T13:14:19.998Z,37.40
2023-02-14T13:16:54.347Z,42.58
2023-02-14T13:22:01.565Z,31.15
2023-02-14T13:24:42.629Z,39.10
2023-02-14T13:27:16.911Z,37.35
2023-02-14T13:29:49.120Z,44.42
2023-02-14T13:32:24.554Z,34.28
2023-02-14T13:34:52.050Z,34.75
2023-02-14T13:37:23.067Z,38.08
2023-02-14T13:39:58.784Z,32.83
2023-02-14T13:42:50.244Z,33.58
2023-02-14T13:45:37.770Z,31.98
2023-02-14T13:48:10.330Z,36.88
2023-02-14T13:50:49.105Z,38.55
2023-02-14T13:53:33.013Z,35.63
2023-02-14T13:56:01.222Z,33.47
2023-02-14T13:58:32.210Z,35.25
2023-02-14T14:00:59.653Z,35.08
2023-02-14T14:03:29.995Z,35.70
2023-02-14T14:06:10.900Z,38.92
2023-02-14T14:08:40.883Z,35.72
2023-02-14T14:11:34.286Z,31.88
2023-02-14T14:14:21.367Z,34.85
2023-02-14T14:16:59.635Z,34.47
2023-02-14T14:19:26.774Z,36.55
2023-02-14T14:22:04.476Z,33.58
2023-02-14T14:24:33.759Z,35.40
2023-02-14T14:27:16.185Z,34.72
2023-02-14T14:29:58.676Z,33.78
2023-02-14T14:32:37.963Z,36.25
2023-02-14T14:35:08.400Z,32.88
2023-02-14T14:37:45.376Z,32.28
2023-02-14T14:40:37.799Z,35.67
2023-02-14T14:43:13.987Z,33.90
2023-02-14T14:45:41.967Z,38.20
2023-02-14T14:48:14.856Z,33.35
2023-02-14T14:50:45.893Z,35.67
2023-02-14T14:53:48.928Z,32.97
2023-02-14T14:56:28.830Z,34.78
2023-02-14T14:58:56.486Z,32.25
2023-02-14T15:01:37.549Z,30.42
2023-02-14T15:04:30.175Z,33.33
2023-02-14T15:07:16.702Z,32.38
2023-02-14T15:09:44.745Z,32.08
2023-02-14T15:12:39.028Z,36.20
2023-02-14T15:15:12.240Z,35.22
2023-02-14T15:17:40.854Z,33.30
2023-02-14T15:20:30.070Z,34.28
2023-02-14T15:22:57.660Z,34.20
2023-02-14T15:25:38.368Z,32.45
2023-02-14T15:28:05.878Z,35.63
2023-02-14T15:30:37.253Z,36.00
2023-02-14T15:33:07.307Z,36.40
2023-02-14T15:35:42.325Z,37.80
2023-02-14T15:38:12.166Z,36.58
2023-02-14T15:40:40.554Z,33.55
2023-02-14T15:43:22.016Z,40.05
2023-02-14T15:45:53.302Z,40.47
2023-02-14T15:48:33.367Z,35.88
2023-02-14T15:51:02.826Z,41.38
2023-02-14T15:53:42.484Z,52.97
2023-02-14T15:56:19.441Z,42.42
2023-02-14T15:58:47.518Z,39.67
2023-02-14T16:01:14.904Z,38.40
2023-02-14T16:03:51.662Z,37.70
2023-02-14T16:06:44.576Z,39.70
2023-02-14T16:09:27.144Z,41.20
2023-02-14T16:11:54.564Z,38.30
2023-02-14T16:14:36.778Z,37.42
2023-02-14T16:17:14.584Z,34.90
2023-02-14T16:19:45.989Z,40.83
2023-02-14T16:22:32.212Z,36.13
2023-02-14T16:24:59.791Z,38.65
2023-02-14T16:27:27.299Z,44.20
2023-02-14T16:29:54.611Z,41.78
2023-02-14T16:32:23.948Z,40.88
2023-02-14T16:34:51.544Z,38.35
2023-02-14T16:37:24.934Z,48.80
2023-02-14T16:39:54.797Z,38.15
2023-02-14T16:42:22.101Z,44.00
2023-02-14T16:44:50.364Z,42.30
2023-02-14T16:47:19.827Z,46.20
2023-02-14T16:49:47.690Z,49.13
2023-02-14T16:52:23.857Z,47.45
2023-02-14T16:54:51.647Z,41.50
2023-02-14T16:57:33.047Z,45.67
2023-02-14T17:00:00.615Z,44.65
2023-02-14T17:02:30.501Z,41.50
2023-02-14T17:04:57.900Z,43.97
2023-02-14T17:07:25.350Z,42.83
2023-02-14T17:10:01.699Z,43.00
2023-02-14T17:12:35.278Z,44.00
2023-02-14T17:15:08.480Z,38.83
2023-02-14T17:17:37.363Z,41.08
2023-02-14T17:20:08.184Z,46.20
2023-02-14T17:22:37.368Z,41.80
2023-02-14T17:25:05.783Z,47.42
2023-02-14T17:27:33.219Z,51.38
2023-02-14T17:30:00.686Z,51.42
2023-02-14T17:32:28.152Z,50.33
2023-02-14T17:34:56.476Z,62.97
2023-02-14T17:37:23.991Z,54.85
2023-02-14T17:39:53.307Z,66.07
2023-02-14T17:42:20.710Z,61.97
2023-02-14T17:44:48.068Z,59.88
2023-02-14T17:47:18.327Z,58.45
2023-02-14T17:49:48.888Z,57.78
2023-02-14T17:52:16.583Z,58.40
2023-02-14T17:54:44.313Z,62.35
2023-02-14T17:57:12.746Z,57.72
2023-02-14T17:59:40.045Z,54.95
2023-02-14T18:02:07.389Z,62.17
2023-02-14T18:04:36.492Z,63.13
2023-02-14T18:07:04.865Z,68.57
2023-02-14T18:09:32.428Z,75.53
2023-02-14T18:11:59.790Z,74.40
2023-02-14T18:14:27.360Z,71.10
2023-02-14T18:16:54.816Z,68.47
2023-02-14T18:19:22.224Z,68.38
2023-02-14T18:21:50.059Z,60.55
2023-02-14T18:24:17.226Z,66.53
2023-02-14T18:26:44.726Z,68.13
2023-02-14T18:29:12.851Z,68.88
2023-02-14T18:31:43.168Z,70.63
2023-02-14T18:34:11.484Z,65.60
2023-02-14T18:36:41.877Z,62.22
2023-02-14T18:39:10.630Z,66.40
2023-02-14T18:41:38.199Z,72.13
2023-02-14T18:44:05.857Z,61.90
2023-02-14T18:46:35.641Z,85.57
2023-02-14T18:49:06.088Z,68.97
2023-02-14T18:51:37.345Z,68.30
2023-02-14T18:54:04.701Z,64.55
2023-02-14T18:56:35.743Z,66.68
2023-02-14T18:59:09.045Z,76.15
2023-02-14T19:01:39.733Z,84.45
2023-02-14T19:04:09.121Z,93.68
2023-02-14T19:06:37.004Z,93.80
2023-02-14T19:09:09.341Z,96.43
2023-02-14T19:11:37.328Z,70.32
2023-02-14T19:14:10.044Z,94.05
2023-02-14T19:16:54.581Z,90.32
2023-02-14T19:19:23.366Z,123.88
2023-02-14T19:21:50.812Z,155.10
2023-02-14T19:24:19.895Z,206.50
2023-02-14T19:26:47.349Z,211.95
2023-02-14T19:29:16.855Z,157.50
2023-02-14T19:31:48.433Z,109.35
2023-02-14T19:34:20.207Z,85.80
2023-02-14T19:36:49.091Z,107.85
2023-02-14T19:39:16.729Z,88.85
2023-02-14T19:41:43.956Z,89.80
2023-02-14T19:44:13.956Z,95.45
2023-02-14T19:46:42.776Z,79.88
2023-02-14T19:49:16.030Z,85.25
2023-02-14T19:51:43.640Z,79.57
2023-02-14T19:54:11.001Z,81.57
2023-02-14T19:56:40.780Z,74.00
2023-02-14T19:59:09.323Z,84.53
2023-02-14T20:01:39.696Z,83.80
2023-02-14T20:04:13.725Z,91.20
2023-02-14T20:06:42.039Z,108.75
2023-02-14T20:09:09.686Z,87.03
2023-02-14T20:11:42.554Z,76.68
2023-02-14T20:14:09.871Z,83.78
2023-02-14T20:16:37.508Z,86.13
2023-02-14T20:19:13.395Z,81.78
2023-02-14T20:21:42.070Z,80.28
2023-02-14T20:24:11.125Z,92.40
2023-02-14T20:26:39.555Z,94.40
2023-02-14T20:29:09.826Z,91.10
2023-02-14T20:31:40.764Z,112.50
2023-02-14T20:34:08.208Z,125.40
2023-02-14T20:36:35.520Z,103.63
2023-02-14T20:39:05.581Z,115.78
2023-02-14T20:41:35.909Z,118.57
2023-02-14T20:44:16.937Z,117.15
2023-02-14T20:46:44.253Z,105.60
2023-02-14T20:49:12.458Z,120.65
2023-02-14T20:51:39.938Z,112.70
2023-02-14T20:54:07.121Z,118.35
2023-02-14T20:56:34.794Z,96.00
2023-02-14T20:59:02.182Z,92.68
2023-02-14T21:01:29.975Z,95.75
2023-02-14T21:03:57.351Z,106.25
2023-02-14T21:06:30.511Z,87.72
2023-02-14T21:08:58.074Z,88.72
2023-02-14T21:11:26.901Z,75.47
2023-02-14T21:13:57.107Z,107.93
2023-02-14T21:16:26.014Z,82.38
2023-02-14T21:19:00.860Z,75.25
2023-02-14T21:21:36.762Z,73.07
2023-02-14T21:24:09.683Z,69.25
2023-02-14T21:26:37.919Z,68.35
2023-02-14T21:29:06.033Z,67.97
2023-02-14T21:31:34.098Z,63.90
2023-02-14T21:34:02.680Z,59.80
2023-02-14T21:36:32.364Z,61.33
2023-02-14T21:39:00.205Z,64.70
2023-02-14T21:41:31.271Z,54.78
2023-02-14T21:44:00.258Z,58.22
2023-02-14T21:46:32.752Z,63.05
2023-02-14T21:49:20.212Z,59.50
2023-02-14T21:51:47.924Z,54.85
2023-02-14T21:54:15.776Z,57.85
2023-02-14T21:56:43.329Z,59.70
2023-02-14T21:59:10.908Z,63.45
2023-02-14T22:01:41.211Z,61.50
2023-02-14T22:04:11.675Z,61.47
2023-02-14T22:06:41.861Z,61.33
2023-02-14T22:09:12.345Z,64.43
2023-02-14T22:11:39.581Z,60.10
2023-02-14T22:14:06.830Z,60.17
2023-02-14T22:16:36.768Z,62.70
2023-02-14T22:19:05.759Z,63.15
2023-02-14T22:21:33.618Z,69.25
2023-02-14T22:24:01.603Z,64.53
2023-02-14T22:26:35.432Z,63.72
2023-02-14T22:29:03.268Z,62.92
2023-02-14T22:31:35.745Z,63.70
2023-02-14T22:34:05.446Z,62.25
2023-02-14T22:36:32.963Z,58.58
2023-02-14T22:39:00.284Z,65.57
2023-02-14T22:41:27.730Z,60.38
2023-02-14T22:43:55.385Z,66.65
2023-02-14T22:46:25.214Z,63.50
2023-02-14T22:48:53.375Z,64.28
2023-02-14T22:51:32.721Z,61.13
2023-02-14T22:54:08.078Z,56.05
2023-02-14T22:56:41.129Z,59.10
2023-02-14T22:59:13.980Z,56.38
2023-02-14T23:01:41.207Z,55.58
2023-02-14T23:04:08.476Z,70.22
2023-02-14T23:06:37.158Z,71.30
2023-02-14T23:09:07.148Z,60.75
2023-02-14T23:11:36.986Z,67.68
2023-02-14T23:14:23.592Z,70.03
2023-02-14T23:17:06.731Z,68.07
2023-02-14T23:19:54.527Z,72.00
2023-02-14T23:22:25.642Z,65.43
2023-02-14T23:24:55.129Z,67.05
2023-02-14T23:27:26.197Z,66.68
2023-02-14T23:29:53.654Z,66.90
2023-02-14T23:32:21.004Z,64.32
2023-02-14T23:34:48.385Z,60.38
2023-02-14T23:37:15.878Z,59.25
2023-02-14T23:39:43.656Z,53.85
2023-02-14T23:42:13.919Z,57.90
2023-02-14T23:44:43.383Z,56.58
2023-02-14T23:47:11.814Z,54.53
2023-02-14T23:49:40.627Z,56.35
2023-02-14T23:52:09.791Z,56.80
2023-02-14T23:54:38.046Z,52.13
2023-02-14T23:57:06.256Z,58.55
2023-02-14T23:59:33.599Z,55.85
